Time;durP1;ratioP1;P1;durP2;ratioP2;P2;SDS_P1;SDS_P2;PMS_P1;PMS_P2;Temp;Humidity;BMP_temperature;BMP_pressure;BME280_temperature;BME280_humidity;BME280_pressure;Samples;Min_cycle;Max_cycle;Signal;HPM_P1;HPM_P2
2021/04/14 00:00:00;;;;;;;6.28;3.45;;;14.30;96.60;;;;;;4357705;32;20174;-60
2021/04/14 00:02:26;;;;;;;8.68;3.67;;;14.00;97.60;;;;;;4379634;32;20081;-60
2021/04/14 00:04:54;;;;;;;5.90;3.60;;;14.10;97.30;;;;;;4363050;32;20529;-59
2021/04/14 00:07:20;;;;;;;7.75;4.05;;;14.10;97.50;;;;;;4388405;32;20092;-59
2021/04/14 00:09:46;;;;;;;6.10;2.95;;;14.10;97.90;;;;;;4356014;32;20076;-60
2021/04/14 00:12:13;;;;;;;7.00;3.40;;;14.00;98.20;;;;;;4383975;32;20154;-59
2021/04/14 00:14:39;;;;;;;5.53;3.33;;;13.90;98.80;;;;;;4352401;32;20214;-60
2021/04/14 00:17:05;;;;;;;7.53;4.57;;;13.90;99.20;;;;;;4378343;32;20100;-60
2021/04/14 00:19:32;;;;;;;7.62;4.03;;;13.80;99.90;;;;;;4376039;32;20428;-59
2021/04/14 00:21:58;;;;;;;7.65;3.70;;;13.90;99.70;;;;;;4385486;32;20504;-59
2021/04/14 00:24:24;;;;;;;6.57;3.55;;;13.80;99.90;;;;;;4353031;32;20081;-60
2021/04/14 00:26:51;;;;;;;8.75;4.22;;;13.90;99.90;;;;;;4365023;32;22168;-61
2021/04/14 00:29:17;;;;;;;5.93;3.85;;;13.80;99.90;;;;;;4371670;32;20174;-58
2021/04/14 00:31:44;;;;;;;9.95;4.00;;;13.70;99.90;;;;;;4388906;32;20077;-60
2021/04/14 00:34:20;;;;;;;7.72;3.90;;;13.70;99.90;;;;;;4394734;32;20070;-59
2021/04/14 00:36:48;;;;;;;5.70;3.80;;;13.70;99.90;;;;;;4369082;32;20085;-60
2021/04/14 00:39:22;;;;;;;10.15;3.97;;;13.70;99.90;;;;;;4368283;32;20081;-60
2021/04/14 00:41:49;;;;;;;5.60;3.50;;;13.40;99.90;;;;;;4362376;32;20093;-60
2021/04/14 00:44:16;;;;;;;5.28;3.60;;;13.60;99.90;;;;;;4367275;32;20149;-58
2021/04/14 00:46:42;;;;;;;5.95;3.92;;;13.30;99.90;;;;;;4364417;32;20481;-58
2021/04/14 00:49:08;;;;;;;7.65;4.10;;;13.30;99.90;;;;;;4355297;32;20085;-59
2021/04/14 00:51:34;;;;;;;7.00;3.83;;;13.40;99.90;;;;;;4363181;32;20077;-59
2021/04/14 00:54:01;;;;;;;6.65;3.92;;;13.40;99.90;;;;;;4385076;32;20066;-59
2021/04/14 00:56:27;;;;;;;7.15;4.10;;;13.50;99.90;;;;;;4382519;32;20243;-60
2021/04/14 00:58:54;;;;;;;7.82;4.30;;;13.40;99.90;;;;;;4383048;32;20128;-60
2021/04/14 01:01:20;;;;;;;9.63;3.90;;;13.40;99.90;;;;;;4365633;32;20070;-60
2021/04/14 01:03:46;;;;;;;8.23;4.07;;;13.40;99.90;;;;;;4368199;32;20078;-59
2021/04/14 01:06:17;;;;;;;5.47;3.62;;;13.50;99.90;;;;;;4384643;32;20081;-59
2021/04/14 01:08:43;;;;;;;8.35;3.75;;;13.40;99.90;;;;;;4369413;32;20089;-60
2021/04/14 01:11:10;;;;;;;10.13;4.00;;;13.40;99.90;;;;;;4378798;32;20123;-59
2021/04/14 01:13:37;;;;;;;6.60;3.70;;;13.30;99.90;;;;;;4362016;32;20066;-59
2021/04/14 01:16:03;;;;;;;6.90;3.60;;;13.10;99.90;;;;;;4359650;32;20073;-58
2021/04/14 01:18:33;;;;;;;7.35;4.00;;;13.30;99.90;;;;;;4357122;32;20239;-59
2021/04/14 01:21:00;;;;;;;7.10;3.78;;;13.10;99.90;;;;;;4378082;32;20085;-59
2021/04/14 01:23:28;;;;;;;7.97;4.03;;;13.10;99.90;;;;;;4363848;32;20074;-59
2021/04/14 01:25:54;;;;;;;6.22;3.78;;;13.10;99.90;;;;;;4371084;32;20097;-59
2021/04/14 01:28:24;;;;;;;6.78;4.00;;;13.10;99.90;;;;;;4350633;32;20085;-58
2021/04/14 01:30:52;;;;;;;6.28;4.12;;;13.10;99.90;;;;;;4367429;32;20074;-59
2021/04/14 01:33:19;;;;;;;10.57;4.20;;;13.10;99.90;;;;;;4364328;32;20085;-60
2021/04/14 01:35:45;;;;;;;9.43;3.97;;;13.20;99.90;;;;;;4370184;32;20081;-59
2021/04/14 01:38:11;;;;;;;8.13;4.47;;;13.10;99.90;;;;;;4384415;32;20147;-60
2021/04/14 01:40:37;;;;;;;6.75;3.90;;;13.10;99.90;;;;;;4388121;32;20076;-58
2021/04/14 01:43:04;;;;;;;7.28;3.92;;;13.00;99.90;;;;;;4366996;32;20077;-58
2021/04/14 01:45:35;;;;;;;7.43;3.83;;;12.90;99.90;;;;;;4356497;32;20490;-59
2021/04/14 01:48:02;;;;;;;9.60;3.87;;;13.00;99.90;;;;;;4372389;32;20148;-59
2021/04/14 01:50:29;;;;;;;5.95;3.80;;;13.00;99.90;;;;;;4374511;32;20069;-60
2021/04/14 01:52:56;;;;;;;8.15;4.32;;;12.90;99.90;;;;;;4367781;32;20162;-60
2021/04/14 01:55:23;;;;;;;8.85;4.10;;;13.00;99.90;;;;;;4371767;32;20066;-59
2021/04/14 01:57:49;;;;;;;8.90;3.78;;;12.90;99.90;;;;;;4376373;32;20077;-60
2021/04/14 02:00:22;;;;;;;6.82;4.20;;;13.00;99.90;;;;;;4372845;32;20077;-58
2021/04/14 02:02:52;;;;;;;9.18;4.18;;;13.10;99.90;;;;;;4379235;32;20089;-59
2021/04/14 02:05:21;;;;;;;7.05;4.07;;;13.00;99.90;;;;;;4378571;32;20082;-60
2021/04/14 02:07:48;;;;;;;7.90;4.30;;;12.90;99.90;;;;;;4367117;32;20510;-60
2021/04/14 02:10:14;;;;;;;7.37;4.10;;;13.00;99.90;;;;;;4382274;32;20145;-64
2021/04/14 02:12:42;;;;;;;7.90;3.97;;;12.90;99.90;;;;;;4360953;32;20082;-59
2021/04/14 02:15:12;;;;;;;6.95;3.70;;;12.80;99.90;;;;;;4354343;32;20074;-59
2021/04/14 02:17:38;;;;;;;6.87;3.80;;;12.80;99.90;;;;;;4373683;32;20568;-61
2021/04/14 02:20:07;;;;;;;6.12;3.62;;;12.90;99.90;;;;;;4378776;32;20170;-60
2021/04/14 02:22:33;;;;;;;8.27;4.03;;;12.80;99.90;;;;;;4356395;32;20496;-59
2021/04/14 02:24:59;;;;;;;7.03;3.75;;;12.90;99.90;;;;;;4376386;32;20170;-60
2021/04/14 02:27:26;;;;;;;9.85;4.07;;;12.90;99.90;;;;;;4379822;32;20544;-60
2021/04/14 02:29:52;;;;;;;7.55;3.55;;;13.00;99.90;;;;;;4385649;32;20577;-59
2021/04/14 02:32:18;;;;;;;5.75;3.62;;;12.90;99.90;;;;;;4360370;32;20157;-59
2021/04/14 02:34:44;;;;;;;7.62;3.80;;;13.00;99.90;;;;;;4380429;32;20059;-60
2021/04/14 02:37:10;;;;;;;8.45;3.87;;;13.00;99.90;;;;;;4365759;32;20074;-59
2021/04/14 02:39:36;;;;;;;5.18;3.78;;;13.00;99.90;;;;;;4377919;32;20069;-59
2021/04/14 02:42:03;;;;;;;7.40;3.87;;;13.10;99.90;;;;;;4390946;32;20065;-59
2021/04/14 02:44:29;;;;;;;6.65;4.03;;;13.10;99.90;;;;;;4375981;32;20096;-60
2021/04/14 02:46:56;;;;;;;6.53;3.65;;;13.10;99.90;;;;;;4365954;32;20097;-60
2021/04/14 02:49:24;;;;;;;7.40;3.67;;;13.10;99.90;;;;;;4362659;32;20073;-59
2021/04/14 02:51:51;;;;;;;7.95;4.10;;;13.10;99.90;;;;;;4381960;32;20161;-58
2021/04/14 02:54:18;;;;;;;16.50;4.65;;;13.00;99.90;;;;;;4344174;32;20464;-60
2021/04/14 02:56:44;;;;;;;7.18;3.90;;;13.10;99.90;;;;;;4387767;32;20155;-59
2021/04/14 02:59:11;;;;;;;8.20;3.90;;;13.10;99.90;;;;;;4358781;32;20062;-58
2021/04/14 03:01:37;;;;;;;13.95;4.28;;;13.20;99.90;;;;;;4380437;32;20081;-59
2021/04/14 03:04:03;;;;;;;7.68;3.60;;;13.20;99.90;;;;;;4370749;32;20452;-60
2021/04/14 03:06:29;;;;;;;11.48;3.97;;;13.20;99.90;;;;;;4386020;32;20065;-59
2021/04/14 03:08:55;;;;;;;10.75;3.85;;;13.30;99.90;;;;;;4365484;32;20065;-60
2021/04/14 03:11:22;;;;;;;7.20;3.60;;;13.40;99.90;;;;;;4387231;32;20159;-59
2021/04/14 03:13:48;;;;;;;7.68;3.67;;;13.40;99.90;;;;;;4338932;32;20258;-60
2021/04/14 03:16:14;;;;;;;12.65;4.65;;;13.40;99.90;;;;;;4363884;32;20070;-59
2021/04/14 03:18:40;;;;;;;6.47;3.75;;;13.40;99.90;;;;;;4372005;32;20069;-59
2021/04/14 03:21:06;;;;;;;6.80;3.10;;;13.50;99.90;;;;;;4377074;32;20107;-59
2021/04/14 03:23:33;;;;;;;6.10;2.85;;;13.50;99.90;;;;;;4352954;32;20090;-59
2021/04/14 03:25:59;;;;;;;8.25;3.40;;;13.60;99.90;;;;;;4335547;32;20081;-59
2021/04/14 03:28:26;;;;;;;6.68;3.65;;;13.60;99.90;;;;;;4375989;32;20073;-59
2021/04/14 03:30:52;;;;;;;10.15;3.90;;;13.70;99.90;;;;;;4375383;32;20524;-59
2021/04/14 03:33:18;;;;;;;7.68;3.42;;;13.80;99.90;;;;;;4367788;32;20457;-60
2021/04/14 03:35:44;;;;;;;5.90;3.58;;;13.80;99.90;;;;;;4375319;32;20137;-58
2021/04/14 03:38:10;;;;;;;7.72;3.17;;;13.80;99.90;;;;;;4375245;32;20068;-59
2021/04/14 03:40:37;;;;;;;10.15;4.68;;;13.90;99.90;;;;;;4388012;32;20448;-59
2021/04/14 03:43:03;;;;;;;10.15;4.50;;;13.90;99.90;;;;;;4365071;32;20609;-59
2021/04/14 03:45:43;;;;;;;11.73;3.90;;;14.00;99.90;;;;;;4373950;32;20074;-60
2021/04/14 03:48:09;;;;;;;10.57;3.53;;;14.10;99.90;;;;;;4348654;32;20209;-59
2021/04/14 03:50:35;;;;;;;7.72;3.65;;;14.10;99.90;;;;;;4354288;32;20067;-59
2021/04/14 03:53:22;;;;;;;6.95;3.80;;;14.00;99.90;;;;;;4374366;32;20154;-59
2021/04/14 03:56:22;;;;;;;7.95;3.70;;;14.00;99.90;;;;;;4369988;32;20065;-61
2021/04/14 03:58:51;;;;;;;11.60;3.95;;;14.10;99.90;;;;;;4374219;32;20072;-59
2021/04/14 04:01:30;;;;;;;11.90;3.80;;;14.20;99.90;;;;;;4366222;32;20092;-59
2021/04/14 04:03:56;;;;;;;7.25;3.35;;;14.20;99.90;;;;;;4359613;32;20082;-60
2021/04/14 04:06:23;;;;;;;9.80;3.47;;;14.30;99.90;;;;;;4372108;32;20104;-59
2021/04/14 04:08:49;;;;;;;6.65;3.33;;;14.30;99.90;;;;;;4377267;32;20519;-59
2021/04/14 04:11:15;;;;;;;6.37;3.33;;;14.40;99.90;;;;;;4365836;32;20085;-59
2021/04/14 04:13:42;;;;;;;5.50;3.15;;;14.50;99.90;;;;;;4357661;32;20069;-58
2021/04/14 04:16:08;;;;;;;9.32;3.97;;;14.50;99.90;;;;;;4362622;32;20070;-60
2021/04/14 04:18:36;;;;;;;7.70;3.53;;;14.60;99.90;;;;;;4379505;32;20070;-59
2021/04/14 04:21:04;;;;;;;9.43;3.90;;;14.60;99.90;;;;;;4365041;32;20062;-59
2021/04/14 04:23:30;;;;;;;11.12;3.53;;;14.60;99.90;;;;;;4360827;32;20077;-59
2021/04/14 04:25:57;;;;;;;8.73;2.92;;;14.80;99.90;;;;;;4381596;32;22657;-59
2021/04/14 04:28:23;;;;;;;7.12;4.03;;;15.00;99.90;;;;;;4343756;32;20070;-59
2021/04/14 04:30:50;;;;;;;12.15;3.78;;;15.00;99.90;;;;;;4375147;32;20148;-60
2021/04/14 04:33:17;;;;;;;7.10;3.70;;;15.00;99.90;;;;;;4382463;32;20159;-58
2021/04/14 04:35:43;;;;;;;4.72;3.30;;;15.10;99.90;;;;;;4389789;32;20073;-60
2021/04/14 04:38:10;;;;;;;7.40;3.47;;;15.10;99.90;;;;;;4356671;32;20503;-59
2021/04/14 04:40:36;;;;;;;7.20;3.42;;;15.20;99.90;;;;;;4385768;32;20077;-59
2021/04/14 04:43:02;;;;;;;6.85;3.12;;;15.40;99.90;;;;;;4365551;32;20081;-58
2021/04/14 04:45:30;;;;;;;8.77;3.47;;;15.40;99.90;;;;;;4366452;32;20081;-59
2021/04/14 04:47:57;;;;;;;7.53;3.42;;;15.50;99.90;;;;;;4370954;32;20193;-59
2021/04/14 04:50:27;;;;;;;5.70;3.12;;;15.50;99.90;;;;;;4390782;32;20484;-59
2021/04/14 04:52:58;;;;;;;4.97;3.20;;;16.70;99.90;;;;;;4382177;32;20073;-59
2021/04/14 04:55:24;;;;;;;8.07;4.07;;;17.70;94.10;;;;;;4349248;32;20074;-60
2021/04/14 04:57:51;;;;;;;5.75;3.22;;;18.60;90.40;;;;;;4356417;32;20061;-60
2021/04/14 05:00:17;;;;;;;9.23;3.58;;;18.20;91.00;;;;;;4355861;32;20088;-60
2021/04/14 05:02:44;;;;;;;7.18;4.35;;;18.80;89.60;;;;;;4374770;32;20109;-60
2021/04/14 05:05:14;;;;;;;9.25;3.37;;;18.50;89.20;;;;;;4355275;32;20105;-59
2021/04/14 05:07:40;;;;;;;11.38;3.37;;;19.60;80.20;;;;;;4349956;32;20502;-59
2021/04/14 05:10:07;;;;;;;7.28;3.50;;;20.20;78.00;;;;;;4385615;32;20064;-59
2021/04/14 05:12:33;;;;;;;6.70;3.58;;;19.50;78.10;;;;;;4364749;32;20161;-62
2021/04/14 05:15:00;;;;;;;9.35;3.62;;;19.90;75.40;;;;;;4354243;32;20077;-59
2021/04/14 05:17:26;;;;;;;9.55;3.75;;;20.20;71.70;;;;;;4363808;32;20450;-58
2021/04/14 05:19:52;;;;;;;10.98;4.22;;;20.80;69.20;;;;;;4371289;32;20069;-59
2021/04/14 05:22:18;;;;;;;7.00;3.33;;;20.20;70.00;;;;;;4394070;32;20078;-59
2021/04/14 05:24:44;;;;;;;6.78;3.45;;;20.10;70.90;;;;;;4356266;32;20503;-59
2021/04/14 05:27:11;;;;;;;7.72;3.40;;;20.70;67.50;;;;;;4399868;32;20540;-60
2021/04/14 05:29:37;;;;;;;6.95;3.10;;;20.60;65.20;;;;;;4383927;32;20153;-58
2021/04/14 05:32:04;;;;;;;8.75;3.62;;;20.50;68.60;;;;;;4359876;32;20143;-60
2021/04/14 05:34:30;;;;;;;6.55;3.47;;;20.50;66.70;;;;;;4392246;32;20074;-60
2021/04/14 05:36:56;;;;;;;7.22;3.37;;;19.80;69.70;;;;;;4354529;32;20070;-60
2021/04/14 05:39:22;;;;;;;7.70;3.85;;;19.90;68.30;;;;;;4350848;32;20078;-60
2021/04/14 05:41:48;;;;;;;7.97;4.12;;;19.90;69.60;;;;;;4383105;32;20089;-61
2021/04/14 05:44:14;;;;;;;7.03;4.00;;;19.30;71.90;;;;;;4376375;32;20085;-59
2021/04/14 05:46:41;;;;;;;11.93;5.32;;;19.20;72.40;;;;;;4367608;32;20073;-59
2021/04/14 05:49:07;;;;;;;11.77;3.83;;;19.20;72.50;;;;;;4364355;32;20126;-59
2021/04/14 05:51:33;;;;;;;9.20;4.32;;;19.70;70.40;;;;;;4364411;32;20082;-59
2021/04/14 05:54:02;;;;;;;11.98;4.40;;;19.80;67.70;;;;;;4364429;32;20559;-59
2021/04/14 05:56:29;;;;;;;8.13;4.15;;;19.70;67.00;;;;;;4364273;32;20089;-59
2021/04/14 05:58:56;;;;;;;9.88;4.10;;;19.70;68.00;;;;;;4372152;32;20107;-60
2021/04/14 06:01:24;;;;;;;8.00;4.10;;;19.90;66.00;;;;;;4363513;32;20162;-60
2021/04/14 06:03:51;;;;;;;7.45;3.20;;;20.70;63.50;;;;;;4370518;32;20158;-61
2021/04/14 06:06:18;;;;;;;5.12;2.65;;;21.30;58.40;;;;;;4382261;32;20057;-59
2021/04/14 06:08:44;;;;;;;5.53;2.95;;;21.10;57.80;;;;;;4375880;32;20117;-59
2021/04/14 06:11:11;;;;;;;4.10;2.80;;;21.00;57.90;;;;;;4354018;32;20216;-59
2021/04/14 06:13:37;;;;;;;5.75;3.12;;;21.20;57.00;;;;;;4353591;32;20097;-58
2021/04/14 06:16:08;;;;;;;4.10;2.67;;;21.20;56.40;;;;;;4383354;32;20064;-59
2021/04/14 06:18:35;;;;;;;5.18;2.85;;;20.50;58.80;;;;;;4364354;32;20511;-59
2021/04/14 06:21:02;;;;;;;6.55;3.28;;;19.60;65.20;;;;;;4377707;32;20077;-60
2021/04/14 06:23:29;;;;;;;12.63;3.80;;;19.20;69.10;;;;;;4369396;32;20455;-60
2021/04/14 06:28:35;;;;;;;7.80;3.45;;;19.60;68.80;;;;;;4364913;32;20070;-59
2021/04/14 06:31:01;;;;;;;8.80;3.42;;;19.80;66.20;;;;;;4363535;32;20113;-59
2021/04/14 06:33:27;;;;;;;8.02;3.30;;;19.50;68.20;;;;;;4384864;32;20157;-60
2021/04/14 06:35:54;;;;;;;7.10;3.00;;;19.60;66.20;;;;;;4384298;32;20065;-58
2021/04/14 06:38:27;;;;;;;8.35;2.85;;;19.80;65.60;;;;;;4372761;32;20443;-59
2021/04/14 06:44:42;;;;;;;6.10;3.00;;;19.60;66.50;;;;;;4372951;32;20078;-59
2021/04/14 06:47:42;;;;;;;6.78;3.33;;;19.70;63.70;;;;;;4390263;32;20080;-58
2021/04/14 06:50:15;;;;;;;13.77;3.60;;;19.90;60.10;;;;;;4369058;32;20140;-60
2021/04/14 06:52:54;;;;;;;7.80;3.35;;;19.40;60.00;;;;;;4354650;32;20101;-60
2021/04/14 06:55:26;;;;;;;6.95;3.12;;;19.60;58.60;;;;;;4354818;32;20571;-59
2021/04/14 06:57:59;;;;;;;6.30;3.28;;;19.80;57.40;;;;;;4362718;32;20074;-59
2021/04/14 07:00:36;;;;;;;7.05;2.78;;;19.90;57.60;;;;;;4349139;32;20066;-58
2021/04/14 07:03:14;;;;;;;7.75;3.40;;;19.70;58.50;;;;;;4342242;32;20081;-59
2021/04/14 07:05:58;;;;;;;6.75;3.17;;;20.20;58.10;;;;;;4365056;32;20073;-60
2021/04/14 07:08:37;;;;;;;9.35;3.15;;;19.80;56.90;;;;;;4356274;32;20070;-57
2021/04/14 07:11:16;;;;;;;4.25;2.80;;;19.90;58.00;;;;;;4376734;32;20158;-57
2021/04/14 07:13:42;;;;;;;6.22;3.25;;;19.80;61.00;;;;;;4351947;32;20085;-57
2021/04/14 07:16:34;;;;;;;6.75;3.33;;;20.20;58.10;;;;;;4363085;32;20102;-57
2021/04/14 07:19:49;;;;;;;6.95;3.53;;;20.30;55.90;;;;;;4376158;32;20464;-56
2021/04/14 07:22:49;;;;;;;8.25;3.30;;;20.50;53.80;;;;;;4371519;32;20077;-57
2021/04/14 07:25:41;;;;;;;5.22;2.95;;;20.30;53.50;;;;;;4372339;32;20095;-57
2021/04/14 07:28:31;;;;;;;16.05;4.25;;;20.50;53.20;;;;;;4369407;32;20425;-58
2021/04/14 07:31:11;;;;;;;13.93;4.15;;;20.40;54.60;;;;;;4369693;32;20517;-59
2021/04/14 07:34:31;;;;;;;9.23;3.55;;;20.50;54.40;;;;;;4379665;32;20066;-59
2021/04/14 07:37:13;;;;;;;5.75;3.70;;;20.50;54.20;;;;;;4361549;32;20172;-59
2021/04/14 07:39:44;;;;;;;5.78;3.55;;;20.70;52.90;;;;;;4351532;32;20070;-59
2021/04/14 07:42:42;;;;;;;13.10;4.35;;;20.50;54.00;;;;;;4349727;32;20445;-59
2021/04/14 07:45:23;;;;;;;7.80;3.12;;;20.50;51.90;;;;;;4365753;32;20097;-58
2021/04/14 07:48:13;;;;;;;6.85;3.05;;;20.60;51.60;;;;;;4386414;32;20133;-57
2021/04/14 07:50:46;;;;;;;6.68;3.05;;;20.20;52.10;;;;;;4378166;32;20071;-59
2021/04/14 07:53:29;;;;;;;6.93;3.15;;;20.30;51.30;;;;;;4366145;32;20104;-57
2021/04/14 07:56:19;;;;;;;5.87;3.33;;;20.60;50.00;;;;;;4358586;32;20097;-58
2021/04/14 07:58:46;;;;;;;7.35;3.50;;;20.50;49.30;;;;;;4366164;32;20070;-58
2021/04/14 08:01:22;;;;;;;7.22;3.22;;;20.40;49.60;;;;;;4374894;32;20124;-59
2021/04/14 08:03:49;;;;;;;8.25;3.42;;;20.40;49.30;;;;;;4368175;32;20909;-57
2021/04/14 08:06:27;;;;;;;5.72;2.92;;;20.80;50.00;;;;;;4356625;32;20074;-58
2021/04/14 08:08:53;;;;;;;9.88;3.20;;;20.80;47.60;;;;;;4370504;32;20148;-59
2021/04/14 08:11:33;;;;;;;5.62;2.97;;;21.10;48.40;;;;;;4366439;32;20088;-60
2021/04/14 08:14:14;;;;;;;9.68;3.08;;;21.20;46.00;;;;;;4390167;32;20116;-59
2021/04/14 08:16:45;;;;;;;7.53;3.40;;;20.90;47.00;;;;;;4343162;32;20100;-59
2021/04/14 08:20:05;;;;;;;10.55;4.43;;;21.00;45.40;;;;;;4342183;32;20061;-60
2021/04/14 08:22:31;;;;;;;7.25;3.65;;;21.50;45.90;;;;;;4310254;33;20106;-58
2021/04/14 08:25:01;;;;;;;8.30;3.95;;;21.30;45.00;;;;;;4363616;32;20081;-59
2021/04/14 08:27:34;;;;;;;10.88;4.03;;;21.60;46.50;;;;;;4369079;32;20498;-57
2021/04/14 08:30:08;;;;;;;8.10;3.75;;;21.00;48.10;;;;;;4380299;32;20066;-58
2021/04/14 08:32:36;;;;;;;10.73;4.45;;;21.80;46.30;;;;;;4385895;32;20097;-57
2021/04/14 08:35:07;;;;;;;7.25;3.50;;;21.50;44.90;;;;;;4364844;32;20487;-59
2021/04/14 08:37:33;;;;;;;7.15;3.47;;;21.20;44.40;;;;;;4349180;32;20127;-59
2021/04/14 08:40:21;;;;;;;8.02;3.50;;;21.80;43.90;;;;;;4372892;32;20062;-60
2021/04/14 08:42:48;;;;;;;7.28;3.67;;;21.60;42.30;;;;;;4351523;32;20094;-59
2021/04/14 08:45:30;;;;;;;8.50;3.28;;;21.50;42.20;;;;;;4365476;32;20075;-60
2021/04/14 08:48:27;;;;;;;5.68;3.12;;;21.60;43.40;;;;;;4353155;32;20085;-60
2021/04/14 08:50:58;;;;;;;6.78;3.10;;;21.10;42.30;;;;;;4356075;32;20062;-60
2021/04/14 08:53:37;;;;;;;6.68;3.17;;;21.30;42.20;;;;;;4353061;32;20068;-61
2021/04/14 08:56:03;;;;;;;8.57;3.50;;;21.40;42.20;;;;;;4369584;32;20089;-61
2021/04/14 08:58:30;;;;;;;10.35;3.50;;;21.50;42.80;;;;;;4360331;32;20101;-61
2021/04/14 09:00:58;;;;;;;6.62;3.15;;;21.60;41.90;;;;;;4380520;32;20154;-61
2021/04/14 09:03:27;;;;;;;8.88;4.18;;;21.50;40.30;;;;;;4347896;32;20066;-60
2021/04/14 09:05:53;;;;;;;4.80;3.28;;;21.80;41.20;;;;;;4353352;32;20106;-58
2021/04/14 09:08:23;;;;;;;5.75;3.47;;;21.80;41.20;;;;;;4379275;32;20136;-58
2021/04/14 09:10:57;;;;;;;5.05;3.33;;;22.40;39.80;;;;;;4363073;32;20082;-59
2021/04/14 09:13:36;;;;;;;6.12;3.40;;;22.00;40.00;;;;;;4374831;32;20105;-60
2021/04/14 09:16:04;;;;;;;6.22;3.95;;;22.00;38.70;;;;;;4375299;32;20178;-61
2021/04/14 09:18:43;;;;;;;7.87;3.37;;;22.20;39.70;;;;;;4359509;32;20062;-59
2021/04/14 09:21:19;;;;;;;8.30;3.65;;;21.60;39.10;;;;;;4368312;32;20103;-57
2021/04/14 09:24:26;;;;;;;5.03;3.37;;;21.70;39.10;;;;;;4356692;32;20157;-59
2021/04/14 09:26:54;;;;;;;;;;;21.70;39.10;;;;;;4320481;32;20082;-58
2021/04/14 09:29:35;;;;;;;5.65;3.35;;;21.90;39.60;;;;;;4389027;32;20001;-59
2021/04/14 09:32:10;;;;;;;5.72;3.25;;;22.30;37.70;;;;;;4362243;32;20077;-59
2021/04/14 09:34:50;;;;;;;10.05;3.20;;;21.70;37.70;;;;;;4379706;32;20105;-60
2021/04/14 09:37:17;;;;;;;9.23;3.40;;;21.90;37.70;;;;;;4367994;32;20448;-64
2021/04/14 09:39:49;;;;;;;10.30;3.35;;;22.00;37.60;;;;;;4380730;32;20097;-59
2021/04/14 09:42:40;;;;;;;6.00;2.80;;;21.90;37.50;;;;;;4389246;32;20145;-59
2021/04/14 09:45:27;;;;;;;5.60;3.17;;;21.60;37.30;;;;;;4374058;32;20146;-58
2021/04/14 09:47:59;;;;;;;6.80;3.17;;;21.80;37.50;;;;;;4385994;32;20066;-59
2021/04/14 09:50:28;;;;;;;8.38;3.30;;;22.50;36.50;;;;;;4372017;32;20080;-58
2021/04/14 09:52:59;;;;;;;8.48;3.53;;;22.40;37.00;;;;;;4382587;32;20081;-59
2021/04/14 09:55:43;;;;;;;12.18;3.80;;;23.00;36.00;;;;;;4358876;32;20082;-60
2021/04/14 09:59:02;;;;;;;9.23;3.35;;;22.50;35.50;;;;;;4370413;32;20074;-57
2021/04/14 10:01:33;;;;;;;7.80;3.75;;;22.30;36.30;;;;;;4325008;33;20090;-59
2021/04/14 10:04:01;;;;;;;5.00;3.12;;;21.90;36.40;;;;;;4364688;32;20080;-58
2021/04/14 10:06:28;;;;;;;9.38;3.25;;;21.80;38.00;;;;;;4362021;32;20516;-58
2021/04/14 10:09:29;;;;;;;6.90;3.40;;;22.60;36.60;;;;;;4366426;32;20069;-57
2021/04/14 10:11:55;;;;;;;9.15;3.95;;;23.10;35.00;;;;;;4361707;32;20531;-59
2021/04/14 10:14:25;;;;;;;11.25;3.53;;;23.20;35.50;;;;;;4364553;32;20065;-56
2021/04/14 10:17:05;;;;;;;9.88;3.33;;;22.40;36.30;;;;;;4366625;32;20067;-57
2021/04/14 10:19:34;;;;;;;6.87;3.20;;;22.70;35.70;;;;;;4366593;32;20473;-57
2021/04/14 10:22:28;;;;;;;9.02;3.35;;;22.30;35.30;;;;;;4351896;32;20141;-57
2021/04/14 10:25:09;;;;;;;6.05;2.90;;;22.60;34.60;;;;;;4365248;32;20064;-57
2021/04/14 10:27:35;;;;;;;6.65;3.00;;;23.20;34.00;;;;;;4367082;32;20055;-55
2021/04/14 10:30:09;;;;;;;4.95;2.97;;;22.70;33.80;;;;;;4371222;32;20141;-56
2021/04/14 10:32:35;;;;;;;8.05;3.20;;;22.20;34.60;;;;;;4366825;32;20193;-57
2021/04/14 10:35:11;;;;;;;5.47;2.78;;;21.90;34.90;;;;;;4341381;32;20070;-57
2021/04/14 10:37:49;;;;;;;6.12;3.00;;;22.20;35.80;;;;;;4362803;32;20077;-58
2021/04/14 10:40:32;;;;;;;5.37;2.35;;;22.60;35.40;;;;;;4385027;32;20524;-57
2021/04/14 10:43:13;;;;;;;8.75;3.28;;;22.20;33.50;;;;;;4356523;32;20110;-58
2021/04/14 10:46:04;;;;;;;9.30;3.33;;;22.30;34.20;;;;;;4372640;32;20078;-61
2021/04/14 10:48:31;;;;;;;8.75;3.08;;;22.70;34.00;;;;;;4362322;32;20104;-60
2021/04/14 10:51:20;;;;;;;7.80;3.22;;;22.30;33.70;;;;;;4364083;32;20523;-60
2021/04/14 10:53:49;;;;;;;8.52;3.00;;;22.40;34.00;;;;;;4369054;32;20070;-59
2021/04/14 10:56:25;;;;;;;8.93;3.30;;;23.00;33.60;;;;;;4344860;32;20160;-59
2021/04/14 10:58:51;;;;;;;12.05;3.28;;;23.40;31.70;;;;;;4375002;32;20143;-59
2021/04/14 11:01:36;;;;;;;5.95;3.55;;;23.50;31.80;;;;;;4374716;32;20075;-59
2021/04/14 11:04:38;;;;;;;7.00;3.20;;;23.20;32.60;;;;;;4346517;32;20082;-60
2021/04/14 11:07:18;;;;;;;10.05;4.05;;;22.60;33.20;;;;;;4353308;32;20068;-59
2021/04/14 11:09:45;;;;;;;7.82;3.47;;;22.80;32.80;;;;;;4366486;32;20077;-59
2021/04/14 11:12:16;;;;;;;6.12;3.20;;;22.90;31.70;;;;;;4344092;32;20068;-60
2021/04/14 11:14:46;;;;;;;10.82;3.37;;;22.90;31.60;;;;;;4349721;32;20075;-60
2021/04/14 11:17:26;;;;;;;7.70;3.12;;;22.60;31.00;;;;;;4353427;32;20062;-67
2021/04/14 11:20:09;;;;;;;7.22;2.75;;;23.10;31.00;;;;;;4347294;32;20077;-62
2021/04/14 11:22:49;;;;;;;5.50;3.03;;;22.50;31.20;;;;;;4373988;32;20159;-60
2021/04/14 11:25:30;;;;;;;5.22;3.03;;;22.20;31.40;;;;;;4350326;32;20548;-60
2021/04/14 11:28:08;;;;;;;9.50;3.08;;;22.30;31.10;;;;;;4368744;32;20106;-59
2021/04/14 11:30:57;;;;;;;5.60;3.28;;;22.70;31.00;;;;;;4353185;32;20147;-59
2021/04/14 11:33:39;;;;;;;5.50;2.90;;;22.70;30.70;;;;;;4361980;32;20594;-60
2021/04/14 11:36:18;;;;;;;6.65;3.15;;;22.40;30.00;;;;;;4370083;32;20070;-61
2021/04/14 11:38:45;;;;;;;5.37;3.08;;;23.10;29.80;;;;;;4359523;32;20058;-61
2021/04/14 11:41:21;;;;;;;9.27;3.25;;;23.00;29.70;;;;;;4370819;32;20491;-59
2021/04/14 11:43:47;;;;;;;5.53;2.40;;;22.90;29.70;;;;;;4369036;32;20080;-60
2021/04/14 11:46:37;;;;;;;4.93;2.83;;;22.70;29.70;;;;;;4372212;32;20093;-61
2021/04/14 11:49:11;;;;;;;4.80;2.60;;;22.60;29.00;;;;;;4361961;32;20089;-60
2021/04/14 11:51:45;;;;;;;4.53;2.72;;;22.70;29.00;;;;;;4357661;32;20089;-60
2021/04/14 11:54:26;;;;;;;9.45;3.03;;;22.30;29.50;;;;;;4372871;32;20081;-60
2021/04/14 11:57:11;;;;;;;4.18;2.58;;;22.50;30.00;;;;;;4387614;32;20204;-62
2021/04/14 11:59:37;;;;;;;8.68;2.67;;;22.90;29.60;;;;;;4380029;32;20097;-62
2021/04/14 12:02:13;;;;;;;3.92;2.20;;;22.70;30.10;;;;;;4368449;32;20074;-59
2021/04/14 12:04:40;;;;;;;5.75;2.40;;;22.60;29.40;;;;;;4378814;32;20466;-60
2021/04/14 12:07:07;;;;;;;4.60;2.75;;;22.50;30.20;;;;;;4382307;32;20069;-60
2021/04/14 12:09:33;;;;;;;7.43;2.97;;;22.50;30.20;;;;;;4372439;32;20159;-59
2021/04/14 12:12:09;;;;;;;4.72;2.70;;;22.90;31.00;;;;;;4375316;32;20108;-60
2021/04/14 12:14:35;;;;;;;5.12;2.58;;;23.10;30.30;;;;;;4381029;32;20436;-58
2021/04/14 12:17:02;;;;;;;4.10;2.47;;;23.00;30.30;;;;;;4370865;32;20077;-58
2021/04/14 12:19:28;;;;;;;6.57;2.67;;;22.40;32.60;;;;;;4360675;32;20066;-60
2021/04/14 12:21:55;;;;;;;3.62;2.53;;;22.20;34.30;;;;;;4375763;32;20084;-60
2021/04/14 12:24:21;;;;;;;6.85;3.00;;;22.40;33.60;;;;;;4386809;32;20572;-60
2021/04/14 12:26:48;;;;;;;6.12;2.62;;;22.60;34.10;;;;;;4356295;32;20089;-60
2021/04/14 12:29:14;;;;;;;6.35;3.05;;;23.00;33.20;;;;;;4377366;32;20077;-59
2021/04/14 12:31:42;;;;;;;8.13;2.97;;;23.00;32.90;;;;;;4387699;32;20069;-59
2021/04/14 12:34:08;;;;;;;6.82;2.95;;;22.80;33.30;;;;;;4346413;32;20085;-61
2021/04/14 12:36:35;;;;;;;7.72;3.03;;;23.10;32.90;;;;;;4363821;32;20477;-59
2021/04/14 12:39:02;;;;;;;5.53;2.58;;;23.00;33.30;;;;;;4368798;32;20077;-60
2021/04/14 12:41:28;;;;;;;7.97;2.90;;;23.00;32.60;;;;;;4376259;32;20080;-61
2021/04/14 12:43:54;;;;;;;7.57;2.95;;;23.10;32.60;;;;;;4385137;32;20149;-61
2021/04/14 12:46:21;;;;;;;8.80;3.45;;;22.70;33.00;;;;;;4378849;32;20183;-59
2021/04/14 12:48:48;;;;;;;6.20;3.15;;;22.60;34.00;;;;;;4383891;32;20105;-61
2021/04/14 12:51:35;;;;;;;8.77;3.37;;;22.50;33.50;;;;;;4378726;32;20065;-60
2021/04/14 12:54:37;;;;;;;6.57;2.80;;;22.50;33.00;;;;;;4359856;32;20067;-59
2021/04/14 12:57:20;;;;;;;5.18;2.62;;;22.90;33.50;;;;;;4390150;32;20093;-59
2021/04/14 12:59:58;;;;;;;7.75;2.90;;;22.80;33.30;;;;;;4367123;32;20763;-59
2021/04/14 13:02:46;;;;;;;13.43;3.33;;;22.70;34.30;;;;;;4376369;32;20086;-60
2021/04/14 13:05:31;;;;;;;6.03;3.08;;;22.70;34.00;;;;;;4372557;32;20097;-60
2021/04/14 13:08:17;;;;;;;13.17;3.40;;;22.90;33.40;;;;;;4373490;32;20109;-61
2021/04/14 13:10:56;;;;;;;7.55;3.37;;;22.30;34.30;;;;;;4363623;32;20174;-60
2021/04/14 13:13:22;;;;;;;5.90;2.72;;;22.30;33.70;;;;;;4370031;32;20070;-60
2021/04/14 13:15:52;;;;;;;11.48;3.87;;;22.10;33.80;;;;;;4383765;32;20089;-61